Time;durP1;ratioP1;P1;durP2;ratioP2;P2;SDS_P1;SDS_P2;PMS_P1;PMS_P2;Temp;Humidity;BMP_temperature;BMP_pressure;BME280_temperature;BME280_humidity;BME280_pressure;Samples;Min_cycle;Max_cycle;Signal;HPM_P1;HPM_P2
2021/10/08 00:00:20;;;;;;;;;;;9.80;99.90;;;8.77;100.00;96595.72;10541022;28;1949;-78
2021/10/08 00:05:22;;;;;;;;;;;9.80;99.90;;;8.83;100.00;96599.28;10538004;28;1984;-77
2021/10/08 00:10:25;;;;;;;;;;;9.80;99.90;;;8.84;100.00;96591.03;10535018;28;1797;-77
2021/10/08 00:15:28;;;;;;;;;;;9.90;99.90;;;8.92;100.00;96592.50;10561792;28;1775;-76
2021/10/08 00:20:31;;;;;;;;;;;9.90;99.90;;;8.99;100.00;96586.97;10556762;28;1894;-78
2021/10/08 00:25:39;;;;;;;;;;;10.00;99.90;;;9.14;100.00;96590.69;10544095;28;1818;-78
2021/10/08 00:30:42;;;;;;;;;;;10.10;99.90;;;9.17;100.00;96586.72;10535873;28;1879;-78
2021/10/08 00:35:45;;;;;;;;;;;10.20;99.90;;;9.20;100.00;96583.53;10536874;28;1831;-79
2021/10/08 00:40:48;;;;;;;;;;;10.20;99.90;;;9.26;100.00;96581.75;10537849;28;1914;-77
2021/10/08 00:45:51;;;;;;;;;;;10.20;99.90;;;9.31;100.00;96573.78;10537522;28;1893;-78
2021/10/08 00:50:54;;;;;;;;;;;10.30;99.90;;;9.38;100.00;96569.06;10535139;28;1866;-77
2021/10/08 00:55:56;;;;;;;;;;;10.30;99.90;;;9.42;100.00;96564.84;10540566;28;1954;-78
2021/10/08 01:00:59;;;;;;;;;;;10.40;99.90;;;9.36;100.00;96572.00;10558550;28;1898;-77
2021/10/08 01:06:02;;;;;;;;;;;10.40;99.90;;;9.34;100.00;96573.28;10538486;28;1935;-77
2021/10/08 01:11:05;;;;;;;;;;;10.40;99.90;;;9.31;100.00;96571.09;10544331;28;1843;-79
2021/10/08 01:16:25;;;;;;;;;;;10.40;99.90;;;9.38;100.00;96569.06;10535510;28;1890;-78
2021/10/08 01:21:48;;;;;;;;;;;10.40;99.90;;;9.46;100.00;96561.41;10552544;28;1923;-79
2021/10/08 01:27:11;;;;;;;;;;;10.40;99.90;;;9.38;100.00;96558.34;10557768;28;1798;-78
2021/10/08 01:32:17;;;;;;;;;;;10.50;99.90;;;9.37;100.00;96551.34;10566710;28;1845;-77
2021/10/08 01:37:20;;;;;;;;;;;10.40;99.90;;;9.36;100.00;96549.72;10552662;28;1868;-78
2021/10/08 01:42:22;;;;;;;;;;;10.40;99.90;;;9.34;100.00;96547.25;10560139;28;2081;-77
2021/10/08 01:47:25;;;;;;;;;;;10.40;99.90;;;9.26;100.00;96555.75;10552113;28;1891;-77
2021/10/08 01:52:28;;;;;;;;;;;10.40;99.90;;;9.34;100.00;96552.63;10546623;28;1857;-78
2021/10/08 01:57:31;;;;;;;;;;;10.40;99.90;;;9.35;100.00;96553.44;10551114;28;2087;-77
2021/10/08 02:02:34;;;;;;;;;;;10.40;99.90;;;9.37;100.00;96559.41;10553781;28;1870;-77
2021/10/08 02:07:37;;;;;;;;;;;10.40;99.90;;;9.34;100.00;96558.00;10554151;28;2042;-76
2021/10/08 02:12:40;;;;;;;;;;;10.40;99.90;;;9.40;100.00;96556.19;10553180;28;2140;-76
2021/10/08 02:17:42;;;;;;;;;;;10.40;99.90;;;9.26;100.00;96553.06;10551976;28;2025;-78
2021/10/08 02:22:47;;;;;;;;;;;10.40;99.90;;;9.32;100.00;96544.03;10551777;28;2077;-78
2021/10/08 02:27:49;;;;;;;;;;;10.40;99.90;;;9.30;100.00;96551.53;10549989;28;1990;-78
2021/10/08 02:32:52;;;;;;;;;;;10.40;99.90;;;9.25;100.00;96553.31;10542123;28;2033;-78
2021/10/08 02:37:55;;;;;;;;;;;10.30;99.90;;;9.30;100.00;96546.16;10542887;28;1985;-78
2021/10/08 02:42:58;;;;;;;;;;;10.30;99.90;;;9.38;100.00;96547.59;10550642;28;1943;-77
2021/10/08 02:48:01;;;;;;;;;;;10.40;99.90;;;9.36;100.00;96549.72;10541550;28;1987;-77
2021/10/08 02:53:05;;;;;;;;;;;10.40;99.90;;;9.29;100.00;96549.06;10544363;28;2020;-77
2021/10/08 02:58:08;;;;;;;;;;;10.40;99.90;;;9.35;100.00;96553.44;10552859;28;2009;-76
2021/10/08 03:03:11;;;;;;;;;;;10.40;99.90;;;9.30;100.00;96556.88;10540427;28;2141;-77
2021/10/08 03:08:13;;;;;;;;;;;10.40;99.90;;;9.42;100.00;96549.56;10538052;28;2118;-77
2021/10/08 03:13:16;;;;;;;;;;;10.50;99.90;;;9.38;100.00;96547.59;10537503;28;2016;-77
2021/10/08 03:18:19;;;;;;;;;;;10.40;99.90;;;9.47;100.00;96551.47;10531768;28;2028;-77
2021/10/08 03:23:22;;;;;;;;;;;10.40;99.90;;;9.44;100.00;96549.28;10538328;28;1990;-76
2021/10/08 03:28:25;;;;;;;;;;;10.50;99.90;;;9.37;100.00;96540.63;10539239;28;2014;-77
2021/10/08 03:33:28;;;;;;;;;;;10.40;99.90;;;9.35;100.00;96540.88;10530451;28;1991;-77
2021/10/08 03:38:32;;;;;;;;;;;10.40;99.90;;;9.37;100.00;96538.75;10540646;28;1922;-77
2021/10/08 03:43:36;;;;;;;;;;;10.50;99.90;;;9.37;100.00;96541.44;10539831;28;1923;-77
2021/10/08 03:53:59;;;;;;;;;;;10.30;99.90;;;9.18;100.00;96553.47;10533292;28;2010;-76
2021/10/08 03:59:02;;;;;;;;;;;10.30;99.90;;;9.14;100.00;96553.16;10531119;28;1982;-76
2021/10/08 04:04:05;;;;;;;;;;;10.20;99.90;;;9.24;100.00;96546.31;10528868;28;2014;-75
2021/10/08 04:09:08;;;;;;;;;;;10.20;99.90;;;9.24;100.00;96557.88;10548366;28;2019;-75
2021/10/08 04:14:11;;;;;;;;;;;10.30;99.90;;;9.32;100.00;96553.94;10541456;28;1998;-77
2021/10/08 04:19:14;;;;;;;;;;;10.30;99.90;;;9.35;100.00;96550.75;10537668;28;2151;-75
2021/10/08 04:24:17;;;;;;;;;;;10.30;99.90;;;9.45;100.00;96545.53;10535633;28;2046;-76
2021/10/08 04:29:19;;;;;;;;;;;10.40;99.90;;;9.42;100.00;96551.41;10529916;28;1998;-76
2021/10/08 04:34:22;;;;;;;;;;;10.50;99.90;;;9.43;100.00;96545.00;10531428;28;2062;-76
2021/10/08 04:39:25;;;;;;;;;;;10.40;99.90;;;9.44;100.00;96547.41;10531613;28;1963;-76
2021/10/08 04:44:30;;;;;;;;;;;10.50;99.90;;;9.49;100.00;96544.00;10529237;28;2069;-76
2021/10/08 04:49:33;;;;;;;;;;;10.50;99.90;;;9.46;100.00;96544.47;10528529;28;1954;-76
2021/10/08 04:54:37;;;;;;;;;;;10.50;99.90;;;9.38;100.00;96540.34;10532647;28;2014;-75
2021/10/08 04:59:40;;;;;;;;;;;10.40;99.90;;;9.28;100.00;96542.06;10528371;28;1952;-76
2021/10/08 05:04:43;;;;;;;;;;;10.40;99.90;;;9.41;100.00;96541.72;10526307;28;1962;-76
2021/10/08 05:09:45;;;;;;;;;;;10.40;99.90;;;9.27;100.00;96551.19;10522748;28;1907;-76
2021/10/08 05:14:49;;;;;;;;;;;10.40;99.90;;;9.31;100.00;96546.97;10523790;28;1990;-75
2021/10/08 05:19:52;;;;;;;;;;;10.40;99.90;;;9.26;100.00;96536.97;10528099;28;1998;-77
2021/10/08 05:24:55;;;;;;;;;;;10.40;99.90;;;9.35;100.00;96545.38;10521473;28;2014;-77
2021/10/08 05:29:58;;;;;;;;;;;10.30;99.90;;;9.33;100.00;96540.28;10531739;28;1927;-76
2021/10/08 05:35:00;;;;;;;;;;;10.40;99.90;;;9.35;100.00;96542.72;10536135;28;1902;-77
2021/10/08 05:40:03;;;;;;;;;;;10.50;99.90;;;9.37;100.00;96540.63;10535367;28;1958;-77
2021/10/08 05:45:06;;;;;;;;;;;10.40;99.90;;;9.34;100.00;96549.13;10529881;28;2126;-76
2021/10/08 05:50:09;;;;;;;;;;;10.40;99.90;;;9.35;100.00;96542.72;10529461;28;2109;-77
2021/10/08 05:55:12;;;;;;;;;;;10.40;99.90;;;9.25;100.00;96554.13;10523657;28;2104;-77
2021/10/08 06:00:15;;;;;;;;;;;10.40;99.90;;;9.38;100.00;96553.78;10531568;28;1988;-77
2021/10/08 06:05:18;;;;;;;;;;;10.40;99.90;;;9.53;100.00;96563.91;10530415;28;1878;-76
2021/10/08 06:10:20;;;;;;;;;;;10.50;99.90;;;9.49;100.00;96562.78;10527816;28;1911;-75
2021/10/08 06:15:23;;;;;;;;;;;10.50;99.90;;;9.51;100.00;96568.72;10534450;28;1876;-76
2021/10/08 06:20:26;;;;;;;;;;;10.50;99.90;;;9.62;100.00;96570.50;10537865;28;2103;-80
2021/10/08 06:25:29;;;;;;;;;;;10.60;99.90;;;9.75;100.00;96563.94;10538492;28;1861;-78
2021/10/08 06:30:32;;;;;;;;;;;10.70;99.90;;;9.68;100.00;96563.31;10547887;28;1938;-76
2021/10/08 06:35:35;;;;;;;;;;;10.70;99.90;;;9.66;100.00;96566.22;10546182;28;1871;-78
2021/10/08 06:40:38;;;;;;;;;;;10.70;99.90;;;9.71;100.00;96576.22;10542105;28;1993;-77
2021/10/08 06:45:40;;;;;;;;;;;10.70;99.90;;;9.82;100.00;96582.56;10548607;28;1804;-76
2021/10/08 06:50:43;;;;;;;;;;;10.80;99.90;;;9.84;100.00;96585.78;10541946;28;1846;-78
2021/10/08 06:55:47;;;;;;;;;;;10.80;99.90;;;9.93;100.00;96589.69;10537734;28;2082;-76
2021/10/08 07:00:53;;;;;;;;;;;10.90;99.90;;;9.73;100.00;96587.53;10540741;28;1910;-75
2021/10/08 07:05:57;;;;;;;;;;;10.90;99.90;;;9.79;100.00;96594.59;10550940;28;1884;-76
2021/10/08 07:11:00;;;;;;;;;;;10.90;99.90;;;9.99;100.00;96599.44;10556789;28;1828;-77
2021/10/08 07:16:03;;;;;;;;;;;10.90;99.90;;;9.91;100.00;96589.91;10529806;28;1975;-76
2021/10/08 07:21:16;;;;;;;;;;;10.90;99.90;;;9.93;100.00;96592.38;10527589;28;1963;-77
2021/10/08 07:26:21;;;;;;;;;;;11.00;99.90;;;9.87;100.00;96586.13;10535837;28;1769;-76
2021/10/08 07:31:24;;;;;;;;;;;10.90;99.90;;;9.84;100.00;96585.78;10542104;28;1947;-76
2021/10/08 07:36:26;;;;;;;;;;;10.90;99.90;;;9.85;100.00;96598.16;10529494;28;1981;-76
2021/10/08 07:41:29;;;;;;;;;;;10.90;99.90;;;9.81;100.00;96599.72;10548240;28;1906;-78
2021/10/08 07:46:32;;;;;;;;;;;10.80;99.90;;;9.77;100.00;96598.59;10529336;28;1909;-76
2021/10/08 07:51:35;;;;;;;;;;;10.80;99.90;;;9.84;100.00;96602.72;10530172;28;1886;-78
2021/10/08 07:56:38;;;;;;;;;;;10.90;99.90;;;9.83;100.00;96609.16;10536136;28;1829;-75
2021/10/08 08:01:41;;;;;;;;;;;10.90;99.90;;;9.90;100.00;96619.72;10564695;27;3855;-77
2021/10/08 08:06:44;;;;;;;;;;;10.90;99.90;;;9.67;100.00;96608.16;10580125;27;3845;-78
2021/10/08 08:11:47;;;;;;;;;;;10.80;99.90;;;9.95;100.00;96617.91;10593406;27;1922;-77
2021/10/08 08:16:50;;;;;;;;;;;10.90;99.90;;;9.95;100.00;96617.09;10554024;28;1907;-79
2021/10/08 08:21:53;;;;;;;;;;;11.00;99.90;;;9.92;100.00;96612.22;10558014;27;1974;-77
2021/10/08 08:26:56;;;;;;;;;;;11.00;99.90;;;9.88;100.00;96616.47;10576647;27;1910;-77
2021/10/08 08:31:59;;;;;;;;;;;11.00;99.90;;;9.93;100.00;96613.84;10553868;27;1840;-76
2021/10/08 08:37:02;;;;;;;;;;;11.00;99.90;;;9.96;100.00;96613.34;10568281;27;1886;-76
2021/10/08 08:42:05;;;;;;;;;;;11.00;99.90;;;10.18;100.00;96606.13;10581982;28;1886;-77
2021/10/08 08:47:08;;;;;;;;;;;11.10;99.90;;;10.33;100.00;96610.06;10555903;28;1905;-75
2021/10/08 08:52:11;;;;;;;;;;;11.30;99.90;;;10.19;100.00;96607.75;10580128;28;1921;-72
2021/10/08 08:57:14;;;;;;;;;;;11.30;99.90;;;10.34;100.00;96598.25;10585343;28;1832;-75
2021/10/08 09:02:17;;;;;;;;;;;11.40;99.90;;;10.33;100.00;96602.00;10567808;28;1890;-71
2021/10/08 09:07:20;;;;;;;;;;;11.40;99.90;;;10.33;100.00;96599.31;10546598;28;2027;-75
2021/10/08 09:12:23;;;;;;;;;;;11.40;99.90;;;10.53;100.00;96596.84;10546071;28;2164;-76
2021/10/08 09:17:27;;;;;;;;;;;11.50;99.90;;;10.32;100.00;96595.81;10567757;28;1902;-76
2021/10/08 09:22:32;;;;;;;;;;;11.50;99.90;;;10.43;100.00;96599.41;10567010;28;1946;-77
2021/10/08 09:27:35;;;;;;;;;;;11.40;99.90;;;10.33;100.00;96596.63;10567771;28;2049;-76
2021/10/08 09:32:38;;;;;;;;;;;11.50;99.90;;;10.38;100.00;96588.63;10564244;28;2038;-73
2021/10/08 09:37:42;;;;;;;;;;;11.40;99.90;;;10.39;100.00;96579.50;10558182;28;1850;-73
2021/10/08 09:42:45;;;;;;;;;;;11.40;99.90;;;10.68;100.00;96583.56;10562279;28;1983;-74
2021/10/08 09:47:47;;;;;;;;;;;11.60;99.90;;;10.80;100.00;96581.53;10565698;27;2007;-74
2021/10/08 09:52:50;;;;;;;;;;;11.70;99.90;;;10.93;100.00;96571.41;10568268;28;1930;-75
2021/10/08 09:57:53;;;;;;;;;;;12.00;99.90;;;11.24;100.00;96575.16;10550267;28;1882;-74
2021/10/08 10:02:56;;;;;;;;;;;12.10;99.90;;;11.54;100.00;96574.56;10568221;27;1947;-71
2021/10/08 10:07:59;;;;;;;;;;;12.30;99.90;;;11.43;100.00;96579.06;10553562;28;1803;-74
2021/10/08 10:13:02;;;;;;;;;;;12.40;99.90;;;11.23;100.00;96568.97;10578349;27;1889;-71
2021/10/08 10:18:06;;;;;;;;;;;12.40;99.90;;;11.17;100.00;96572.69;10573770;28;1847;-72
2021/10/08 10:23:09;;;;;;;;;;;12.20;99.90;;;11.66;100.00;96575.19;10579584;27;1905;-73
2021/10/08 10:28:12;;;;;;;;;;;12.40;99.90;;;11.41;100.00;96572.34;10579286;28;1993;-71
2021/10/08 10:33:18;;;;;;;;;;;12.50;99.90;;;12.15;100.00;96564.09;10613364;27;1842;-72
2021/10/08 10:38:21;;;;;;;;;;;12.90;99.90;;;12.74;100.00;96571.84;10588295;28;2246;-71
2021/10/08 10:43:24;;;;;;;;;;;13.40;99.90;;;12.59;100.00;96559.09;10581250;27;1921;-74
2021/10/08 10:48:29;;;;;;;;;;;13.60;99.90;;;12.81;100.00;96564.28;10572894;27;1898;-75
2021/10/08 10:53:46;;;;;;;;;;;13.60;99.90;;;12.85;99.98;96568.06;10574084;27;1925;-72
2021/10/08 10:58:49;;;;;;;;;;;13.80;99.90;;;12.75;100.00;96572.63;10571779;27;1815;-72
2021/10/08 11:03:52;;;;;;;;;;;13.80;99.90;;;12.62;100.00;96568.56;10591045;28;1937;-73
2021/10/08 11:08:55;;;;;;;;;;;13.50;99.90;;;12.69;100.00;96574.50;10607951;27;1834;-72
2021/10/08 11:13:57;;;;;;;;;;;13.60;99.90;;;12.72;100.00;96571.28;10587865;28;1892;-73
2021/10/08 11:19:02;;;;;;;;;;;13.60;99.90;;;12.78;99.94;96562.09;10562449;28;1782;-72
2021/10/08 11:24:05;;;;;;;;;;;13.80;99.90;;;13.15;99.13;96553.75;10579842;27;1910;-71
2021/10/08 11:29:08;;;;;;;;;;;14.00;99.90;;;12.95;95.42;96562.66;10576290;27;1859;-72
2021/10/08 11:34:13;;;;;;;;;;;14.10;99.90;;;13.25;94.30;96556.50;10575850;27;1583;-72
2021/10/08 11:39:16;;;;;;;;;;;14.00;99.90;;;13.43;92.80;96557.84;10570646;28;1341;-74
2021/10/08 11:44:21;;;;;;;;;;;14.20;99.90;;;13.29;91.05;96555.94;10567705;28;1980;-72
2021/10/08 11:49:44;;;;;;;;;;;14.40;99.90;;;12.89;92.04;96546.75;10567209;27;1927;-74
2021/10/08 11:54:47;;;;;;;;;;;14.20;99.90;;;12.98;94.84;96540.56;10552572;28;1874;-72
2021/10/08 11:59:50;;;;;;;;;;;14.00;99.90;;;13.11;91.37;96531.09;10567159;27;1835;-74
2021/10/08 12:04:53;;;;;;;;;;;14.10;99.90;;;13.51;87.63;96532.97;10547454;28;1914;-73
2021/10/08 12:09:56;;;;;;;;;;;14.30;99.90;;;13.47;87.81;96514.88;10566934;28;1942;-75
2021/10/08 12:14:59;;;;;;;;;;;14.40;99.90;;;13.45;87.10;96533.25;10570163;28;2024;-76
2021/10/08 12:20:01;;;;;;;;;;;14.60;99.90;;;12.95;89.77;96516.78;10562928;28;1921;-75
2021/10/08 12:25:04;;;;;;;;;;;14.30;99.90;;;13.70;85.24;96516.97;10564807;28;1909;-72
2021/10/08 12:30:07;;;;;;;;;;;14.30;99.90;;;13.77;83.54;96513.97;10566600;28;1819;-74
2021/10/08 12:35:10;;;;;;;;;;;14.70;99.90;;;13.93;83.23;96510.16;10564908;27;1866;-73
2021/10/08 12:40:17;;;;;;;;;;;14.80;99.90;;;13.95;83.36;96499.06;10560773;27;2064;-74
2021/10/08 12:45:23;;;;;;;;;;;14.90;99.90;;;14.03;80.36;96507.38;10562905;28;1930;-73
2021/10/08 12:50:25;;;;;;;;;;;15.10;99.90;;;14.12;78.14;96499.50;10560469;27;1835;-74
2021/10/08 12:55:30;;;;;;;;;;;15.20;99.90;;;14.36;76.48;96510.47;10549762;28;1776;-74
2021/10/08 13:00:33;;;;;;;;;;;15.30;99.90;;;14.34;75.31;96504.53;10561932;27;1922;-74
2021/10/08 13:05:36;;;;;;;;;;;15.30;99.90;;;14.00;75.12;96499.84;10561845;28;1973;-74
2021/10/08 13:10:39;;;;;;;;;;;15.20;99.90;;;13.75;75.61;96500.75;10560302;27;1918;-72
2021/10/08 13:15:42;;;;;;;;;;;14.90;99.90;;;13.45;77.36;96493.53;10570476;28;1907;-77
2021/10/08 13:20:45;;;;;;;;;;;14.70;99.90;;;13.70;75.76;96487.25;10564460;28;2145;-76
2021/10/08 13:25:48;;;;;;;;;;;14.70;99.90;;;13.77;74.48;96492.38;10564098;27;1748;-77
2021/10/08 13:30:50;;;;;;;;;;;14.80;99.90;;;13.76;73.25;96496.97;10579941;28;1870;-77
2021/10/08 13:35:53;;;;;;;;;;;14.70;99.90;;;13.70;76.56;96508.88;10563307;28;1697;-77
2021/10/08 13:40:57;;;;;;;;;;;14.80;99.90;;;13.15;77.16;96512.47;10574552;28;1994;-75
2021/10/08 13:46:00;;;;;;;;;;;14.60;99.90;;;13.00;77.13;96497.09;10579868;28;1894;-74
2021/10/08 13:51:03;;;;;;;;;;;14.20;99.90;;;13.44;75.58;96510.84;10569426;28;1902;-73
2021/10/08 13:56:06;;;;;;;;;;;14.20;99.90;;;13.40;74.14;96498.16;10573341;28;1867;-75
2021/10/08 14:01:09;;;;;;;;;;;14.40;99.90;;;13.49;75.17;96502.72;10580936;28;1902;-74
2021/10/08 14:11:29;;;;;;;;;;;14.60;99.90;;;14.12;73.11;96485.16;10559250;28;1866;-75
2021/10/08 14:16:33;;;;;;;;;;;14.90;99.90;;;13.77;75.69;96492.38;10562012;28;1843;-77
2021/10/08 14:21:36;;;;;;;;;;;15.00;99.90;;;13.69;74.12;96492.94;10562339;28;1901;-74
2021/10/08 14:26:39;;;;;;;;;;;14.90;99.90;;;13.47;74.42;96494.06;10584313;28;1934;-79
2021/10/08 14:31:42;;;;;;;;;;;14.70;99.90;;;13.49;74.65;96491.91;10586059;28;1970;-79
2021/10/08 14:36:45;;;;;;;;;;;14.60;99.90;;;13.29;75.30;96491.13;10557764;27;8889;-79
2021/10/08 14:41:47;;;;;;;;;;;14.40;99.90;;;13.01;75.99;96487.09;10586901;28;1985;-78
2021/10/08 14:46:51;;;;;;;;;;;14.20;99.90;;;12.93;78.05;96494.69;10580391;28;1906;-79
2021/10/08 14:51:55;;;;;;;;;;;14.10;99.90;;;13.01;77.80;96497.91;10581397;27;1934;-77
2021/10/08 15:02:14;;;;;;;;;;;14.00;99.90;;;12.94;77.23;96490.09;10566412;28;2026;-77
2021/10/08 15:07:18;;;;;;;;;;;14.00;99.90;;;12.85;77.19;96497.09;10561227;28;1898;-77
2021/10/08 15:12:20;;;;;;;;;;;14.00;99.90;;;12.73;78.23;96491.97;10572387;28;2057;-74
2021/10/08 15:17:23;;;;;;;;;;;13.90;99.90;;;12.79;78.73;96485.50;10568932;27;1874;-77
2021/10/08 15:22:26;;;;;;;;;;;13.80;99.90;;;12.93;78.18;96483.88;10568209;27;1906;-73
2021/10/08 15:27:29;;;;;;;;;;;13.80;99.90;;;12.67;77.74;96484.97;10567460;28;1965;-72
2021/10/08 15:32:32;;;;;;;;;;;13.80;99.90;;;12.62;77.57;96477.69;10570701;27;1937;-72
2021/10/08 15:37:36;;;;;;;;;;;13.70;99.90;;;12.37;79.77;96483.84;10566434;28;1914;-73
2021/10/08 15:42:39;;;;;;;;;;;13.60;99.90;;;12.39;80.52;96486.28;10569996;28;1941;-73
2021/10/08 15:47:42;;;;;;;;;;;13.50;99.90;;;12.38;81.03;96482.75;10562583;27;1874;-72
2021/10/08 15:52:45;;;;;;;;;;;13.50;99.90;;;12.22;82.37;96483.84;10568443;28;1851;-73
2021/10/08 15:57:48;;;;;;;;;;;13.40;99.90;;;11.95;83.42;96484.00;10565830;28;1899;-74
2021/10/08 16:02:51;;;;;;;;;;;13.20;99.90;;;11.73;83.65;96483.38;10569441;27;1905;-74
2021/10/08 16:07:54;;;;;;;;;;;13.00;99.90;;;11.54;85.61;96488.41;10564020;28;1847;-78
2021/10/08 16:12:59;;;;;;;;;;;12.80;99.90;;;11.36;88.42;96492.34;10572934;27;1839;-77
2021/10/08 16:18:06;;;;;;;;;;;12.60;99.90;;;11.20;89.36;96493.34;10571018;27;1862;-77
2021/10/08 16:23:09;;;;;;;;;;;12.40;99.90;;;11.02;91.02;96494.56;10571223;27;1980;-76
2021/10/08 16:28:12;;;;;;;;;;;12.40;99.90;;;10.88;92.44;96501.44;10567442;28;1886;-77
2021/10/08 16:33:15;;;;;;;;;;;12.20;99.90;;;10.74;92.84;96498.38;10561084;28;2003;-76
2021/10/08 16:38:17;;;;;;;;;;;12.00;99.90;;;10.63;93.68;96508.25;10564324;28;2014;-77
2021/10/08 16:43:23;;;;;;;;;;;11.90;99.90;;;10.51;94.69;96513.78;10562159;27;2034;-77
2021/10/08 16:48:27;;;;;;;;;;;11.80;99.90;;;10.38;96.06;96510.69;10569185;27;1945;-76
2021/10/08 16:53:29;;;;;;;;;;;11.60;99.90;;;10.24;97.27;96521.00;10563291;28;1964;-80
2021/10/08 16:58:32;;;;;;;;;;;11.50;99.90;;;10.13;98.27;96517.41;10561070;28;1718;-79
2021/10/08 17:03:35;;;;;;;;;;;11.40;99.90;;;9.99;98.56;96527.72;10588777;28;1898;-78
2021/10/08 17:08:40;;;;;;;;;;;11.20;99.90;;;9.92;98.71;96535.13;10578987;28;1870;-78
2021/10/08 17:13:43;;;;;;;;;;;11.10;99.90;;;9.76;100.00;96544.09;10556339;28;1788;-77
2021/10/08 17:18:45;;;;;;;;;;;11.00;99.90;;;9.63;100.00;96533.72;10563060;28;1919;-77
2021/10/08 17:23:51;;;;;;;;;;;10.90;99.90;;;9.53;100.00;96539.75;10578592;28;1957;-77
2021/10/08 17:34:11;;;;;;;;;;;10.70;99.90;;;9.41;100.00;96547.09;10566950;28;1878;-77
2021/10/08 17:39:15;;;;;;;;;;;10.60;99.90;;;9.23;100.00;96552.75;10557073;28;1864;-76
2021/10/08 17:44:18;;;;;;;;;;;10.50;99.90;;;9.13;100.00;96546.16;10568912;28;1913;-75
2021/10/08 17:49:21;;;;;;;;;;;10.40;99.90;;;9.05;100.00;96551.94;10573078;28;1896;-74
2021/10/08 17:54:24;;;;;;;;;;;10.30;99.90;;;9.06;100.00;96553.56;10576696;28;1886;-74
2021/10/08 17:59:26;;;;;;;;;;;10.30;99.90;;;8.98;100.00;96554.00;10569886;28;1882;-77
2021/10/08 18:04:29;;;;;;;;;;;10.20;99.90;;;8.85;100.00;96551.63;10575203;28;1976;-77
2021/10/08 18:09:32;;;;;;;;;;;10.10;99.90;;;8.77;100.00;96552.81;10573918;28;1895;-77
2021/10/08 18:14:35;;;;;;;;;;;10.00;99.90;;;8.68;100.00;96553.47;10562887;28;1917;-76
2021/10/08 18:19:39;;;;;;;;;;;9.90;99.90;;;8.65;100.00;96555.59;10576331;28;1949;-76
2021/10/08 18:24:43;;;;;;;;;;;9.90;99.90;;;8.50;100.00;96558.00;10578794;27;1973;-78
2021/10/08 18:29:52;;;;;;;;;;;9.80;99.90;;;8.42;100.00;96552.22;10575625;27;1819;-77
2021/10/08 18:34:55;;;;;;;;;;;9.70;99.90;;;8.47;100.00;96555.00;10578948;27;1902;-76
2021/10/08 18:39:59;;;;;;;;;;;9.70;99.90;;;8.37;100.00;96559.09;10576440;27;1874;-77
2021/10/08 18:45:02;;;;;;;;;;;9.60;99.90;;;8.32;100.00;96550.94;10583056;28;2217;-77
2021/10/08 18:50:05;;;;;;;;;;;9.60;99.90;;;8.31;100.00;96548.50;10551214;27;1900;-77
2021/10/08 18:55:08;;;;;;;;;;;9.60;99.90;;;8.24;100.00;96547.84;10567841;28;1437;-77
2021/10/08 19:00:11;;;;;;;;;;;9.50;99.90;;;8.25;100.00;96552.13;10572298;28;1436;-76
2021/10/08 19:05:14;;;;;;;;;;;9.50;99.90;;;8.25;100.00;96546.78;10577137;28;1921;-76
2021/10/08 19:10:29;;;;;;;;;;;9.50;99.90;;;8.22;100.00;96549.97;10574851;27;1945;-77
2021/10/08 19:15:41;;;;;;;;;;;9.40;99.90;;;8.10;100.00;96548.13;10555132;28;1875;-76
2021/10/08 19:20:44;;;;;;;;;;;9.40;99.90;;;8.06;100.00;96549.66;10572380;28;1874;-76
2021/10/08 19:25:48;;;;;;;;;;;9.30;99.90;;;8.01;100.00;96544.19;10574073;27;1914;-77
2021/10/08 19:30:52;;;;;;;;;;;9.20;99.90;;;7.94;100.00;96543.50;10577580;27;1922;-77
2021/10/08 19:35:55;;;;;;;;;;;9.20;99.90;;;7.87;100.00;96550.88;10577899;27;1858;-77
2021/10/08 19:40:58;;;;;;;;;;;9.10;99.90;;;7.79;100.00;96551.25;10570810;27;1816;-76
2021/10/08 19:46:13;;;;;;;;;;;9.00;99.90;;;7.69;100.00;96551.84;10567991;28;1913;-77
2021/10/08 19:51:16;;;;;;;;;;;8.90;99.90;;;7.67;100.00;96553.13;10559761;28;1875;-77
2021/10/08 19:56:19;;;;;;;;;;;8.90;99.90;;;7.66;100.00;96546.16;10550375;27;1888;-77
2021/10/08 20:01:22;;;;;;;;;;;8.90;99.90;;;7.57;100.00;96543.88;10571304;28;1957;-78
2021/10/08 20:06:46;;;;;;;;;;;8.80;99.90;;;7.48;100.00;96550.59;10566618;28;1913;-78
2021/10/08 20:12:29;;;;;;;;;;;8.80;99.90;;;7.42;100.00;96540.03;10570550;28;1870;-77
2021/10/08 20:17:32;;;;;;;;;;;8.70;99.90;;;7.42;100.00;96540.84;10563209;28;1795;-77
2021/10/08 20:22:35;;;;;;;;;;;8.60;99.90;;;7.42;100.00;96538.16;10569926;28;1898;-77
2021/10/08 20:27:38;;;;;;;;;;;8.60;99.90;;;7.39;100.00;96535.97;10560401;28;1902;-77
2021/10/08 20:32:40;;;;;;;;;;;8.60;99.90;;;7.31;100.00;96525.63;10552381;27;1884;-77
2021/10/08 20:37:44;;;;;;;;;;;8.60;99.90;;;7.29;100.00;96535.75;10562700;27;1934;-77
2021/10/08 20:42:47;;;;;;;;;;;8.50;99.90;;;7.25;100.00;96530.06;10566918;27;1990;-76
2021/10/08 20:47:49;;;;;;;;;;;8.50;99.90;;;7.20;100.00;96529.94;10567080;28;1937;-76
2021/10/08 20:52:52;;;;;;;;;;;8.40;99.90;;;7.17;100.00;96526.91;10568231;28;1914;-78
2021/10/08 20:57:55;;;;;;;;;;;8.30;99.90;;;7.14;100.00;96524.72;10545456;28;1944;-78
2021/10/08 21:03:10;;;;;;;;;;;8.30;99.90;;;7.08;100.00;96529.13;10566267;28;1930;-77
2021/10/08 21:08:13;;;;;;;;;;;8.30;99.90;;;6.98;100.00;96529.69;10568758;28;1878;-76
2021/10/08 21:13:16;;;;;;;;;;;8.30;99.90;;;6.95;100.00;96522.16;10575110;28;1858;-77
2021/10/08 21:18:19;;;;;;;;;;;8.20;99.90;;;7.00;100.00;96519.63;10565215;28;1831;-77
2021/10/08 21:23:21;;;;;;;;;;;8.20;99.90;;;7.00;100.00;96516.13;10564451;28;1906;-76
2021/10/08 21:28:24;;;;;;;;;;;8.20;99.90;;;6.95;100.00;96518.69;10542186;28;1942;-76
2021/10/08 21:33:34;;;;;;;;;;;8.20;99.90;;;6.90;100.00;96526.56;10563688;28;1957;-76
2021/10/08 21:38:40;;;;;;;;;;;8.10;99.90;;;6.84;100.00;96519.47;10568470;28;1768;-76
2021/10/08 21:43:48;;;;;;;;;;;8.00;99.90;;;6.75;100.00;96519.03;10568211;28;1910;-77
2021/10/08 21:48:51;;;;;;;;;;;8.00;99.90;;;6.80;100.00;96515.63;10568122;28;1874;-77
2021/10/08 21:53:53;;;;;;;;;;;8.00;99.90;;;6.74;100.00;96512.03;10574306;27;1886;-76
2021/10/08 21:58:57;;;;;;;;;;;7.90;99.90;;;6.69;100.00;96511.94;10575781;27;1893;-78
2021/10/08 22:04:02;;;;;;;;;;;7.90;99.90;;;6.65;100.00;96505.41;10575740;27;2009;-76
2021/10/08 22:09:05;;;;;;;;;;;7.90;99.90;;;6.57;100.00;96513.75;10574215;27;1951;-77
2021/10/08 22:14:08;;;;;;;;;;;7.80;99.90;;;6.55;100.00;96508.63;10573386;28;1890;-77
2021/10/08 22:19:14;;;;;;;;;;;7.70;99.90;;;6.51;100.00;96499.47;10574224;27;1997;-73
2021/10/08 22:24:22;;;;;;;;;;;7.70;99.90;;;6.48;100.00;96499.91;10574252;27;2000;-78
2021/10/08 22:34:46;;;;;;;;;;;7.60;99.90;;;6.42;100.00;96498.97;10603240;27;1579;-77
2021/10/08 22:39:49;;;;;;;;;;;7.60;99.90;;;6.40;100.00;96490.38;10612667;27;1913;-77
2021/10/08 22:44:56;;;;;;;;;;;7.60;99.90;;;6.39;100.00;96488.75;10607243;27;1957;-77
2021/10/08 22:49:59;;;;;;;;;;;7.60;99.90;;;6.34;100.00;96483.28;10633900;27;1827;-77
2021/10/08 22:55:02;;;;;;;;;;;7.50;99.90;;;6.34;100.00;96483.28;10601067;27;1721;-77
2021/10/08 23:00:05;;;;;;;;;;;7.50;99.90;;;6.36;100.00;96483.88;10594744;28;1745;-77
2021/10/08 23:05:08;;;;;;;;;;;7.50;99.90;;;6.33;100.00;96470.97;10600291;28;1982;-78
2021/10/08 23:10:21;;;;;;;;;;;7.50;99.90;;;6.33;100.00;96470.97;10616912;27;1949;-77
2021/10/08 23:15:25;;;;;;;;;;;7.50;99.90;;;6.30;100.00;96455.44;10592646;28;1969;-78
2021/10/08 23:20:28;;;;;;;;;;;7.40;99.90;;;6.24;100.00;96461.69;10618488;27;1534;-76
2021/10/08 23:25:31;;;;;;;;;;;7.50;99.90;;;6.18;100.00;96470.63;10604108;27;1898;-77
2021/10/08 23:30:34;;;;;;;;;;;7.40;99.90;;;6.17;100.00;96469.81;10571045;28;1989;-77
2021/10/08 23:35:37;;;;;;;;;;;7.40;99.90;;;6.11;100.00;96475.25;10572897;27;1969;-77
2021/10/08 23:40:40;;;;;;;;;;;7.20;99.90;;;6.07;100.00;96474.88;10574447;28;1872;-77
2021/10/08 23:45:43;;;;;;;;;;;7.30;99.90;;;6.04;100.00;96480.66;10575120;28;1874;-77